THY8RW LTFM-LTBS
Flight info
| Callsign | THY8RW |
|---|---|
| Flight time | 0h 53m |
| Altitude | 33000 |
| Route | RATVU1E/36 RATVU UT35 NUMTI/N0428F340 DCT KULAR/N0434F350 UT44 ATSAL |
| Aircraft | B738/M-SDE2E3FGHIRWXY/LB1 |
Departure
| Time | 2026-05-04 21:32 |
|---|---|
| Airport | İstanbul Airport (LTFM) |
Arrival
| Time | 2026-05-04 22:26 |
|---|---|
| Airport | Dalaman International Airport (LTBS) |
| Time | Latitude | Longitude | Altitude | Speed | Heading |
|---|---|---|---|---|---|
| 2026-05-04 20:52 | 41.25747 | 28.75024 | 311 ft | 0 kts | 359° |
| 2026-05-04 21:22 | 41.25745 | 28.75024 | 311 ft | 2 kts | 359° |
| 2026-05-04 21:22 | 41.25720 | 28.75025 | 311 ft | 4 kts | 359° |
| 2026-05-04 21:22 | 41.25695 | 28.75026 | 310 ft | 4 kts | 358° |
| 2026-05-04 21:23 | 41.25669 | 28.75027 | 310 ft | 4 kts | 358° |
| 2026-05-04 21:23 | 41.25643 | 28.75028 | 310 ft | 4 kts | 358° |
| 2026-05-04 21:23 | 41.25617 | 28.75030 | 309 ft | 4 kts | 357° |
| 2026-05-04 21:23 | 41.25592 | 28.75031 | 309 ft | 4 kts | 357° |
| 2026-05-04 21:24 | 41.25566 | 28.75033 | 309 ft | 4 kts | 358° |
| 2026-05-04 21:24 | 41.25550 | 28.75034 | 309 ft | 0 kts | 359° |
| 2026-05-04 21:27 | 41.25551 | 28.75034 | 309 ft | 1 kts | 359° |
| 2026-05-04 21:27 | 41.25571 | 28.75033 | 309 ft | 5 kts | 359° |
| 2026-05-04 21:27 | 41.25608 | 28.75035 | 309 ft | 5 kts | 9° |
| 2026-05-04 21:27 | 41.25637 | 28.75061 | 309 ft | 5 kts | 58° |
| 2026-05-04 21:28 | 41.25642 | 28.75109 | 310 ft | 6 kts | 88° |
| 2026-05-04 21:28 | 41.25643 | 28.75177 | 309 ft | 9 kts | 90° |
| 2026-05-04 21:28 | 41.25643 | 28.75271 | 311 ft | 11 kts | 89° |
| 2026-05-04 21:28 | 41.25650 | 28.75357 | 312 ft | 8 kts | 67° |
| 2026-05-04 21:29 | 41.25698 | 28.75391 | 312 ft | 8 kts | 1° |
| 2026-05-04 21:29 | 41.25758 | 28.75391 | 312 ft | 10 kts | 359° |
| 2026-05-04 21:29 | 41.25838 | 28.75390 | 313 ft | 13 kts | 359° |
| 2026-05-04 21:29 | 41.25942 | 28.75387 | 313 ft | 16 kts | 359° |
| 2026-05-04 21:30 | 41.26058 | 28.75384 | 314 ft | 16 kts | 359° |
| 2026-05-04 21:30 | 41.26169 | 28.75383 | 312 ft | 16 kts | 359° |
| 2026-05-04 21:30 | 41.26234 | 28.75409 | 313 ft | 9 kts | 53° |
| 2026-05-04 21:30 | 41.26244 | 28.75487 | 313 ft | 9 kts | 89° |
| 2026-05-04 21:31 | 41.26251 | 28.75639 | 315 ft | 8 kts | 67° |
| 2026-05-04 21:31 | 41.26298 | 28.75666 | 315 ft | 8 kts | 357° |
| 2026-05-04 21:31 | 41.26436 | 28.75665 | 311 ft | 51 kts | 359° |
| 2026-05-04 21:32 | 41.27056 | 28.75655 | 301 ft | 125 kts | 360° |
| 2026-05-04 21:32 | 41.28110 | 28.75609 | 514 ft | 163 kts | 356° |
| 2026-05-04 21:32 | 41.29221 | 28.75630 | 1409 ft | 162 kts | 10° |
| 2026-05-04 21:32 | 41.29919 | 28.75999 | 1916 ft | 166 kts | 34° |
| 2026-05-04 21:33 | 41.30757 | 28.77184 | 2475 ft | 188 kts | 45° |
| 2026-05-04 21:33 | 41.32281 | 28.78542 | 2925 ft | 214 kts | 21° |
| 2026-05-04 21:33 | 41.33729 | 28.79401 | 3234 ft | 239 kts | 24° |
| 2026-05-04 21:33 | 41.34729 | 28.80058 | 3737 ft | 243 kts | 25° |
| 2026-05-04 21:34 | 41.36239 | 28.81096 | 4667 ft | 244 kts | 26° |
| 2026-05-04 21:34 | 41.37590 | 28.82478 | 5572 ft | 250 kts | 51° |
| 2026-05-04 21:34 | 41.38302 | 28.84615 | 6458 ft | 260 kts | 74° |
| 2026-05-04 21:34 | 41.38443 | 28.87057 | 7261 ft | 269 kts | 84° |
| 2026-05-04 21:35 | 41.38445 | 28.89567 | 8054 ft | 275 kts | 89° |
| 2026-05-04 21:35 | 41.37883 | 28.92059 | 8814 ft | 291 kts | 116° |
| 2026-05-04 21:35 | 41.36515 | 28.94089 | 9636 ft | 300 kts | 140° |
| 2026-05-04 21:35 | 41.34619 | 28.95346 | 10372 ft | 312 kts | 160° |
| 2026-05-04 21:36 | 41.32443 | 28.96130 | 10633 ft | 336 kts | 164° |
| 2026-05-04 21:36 | 41.30103 | 28.96824 | 11117 ft | 350 kts | 165° |
| 2026-05-04 21:36 | 41.27708 | 28.97494 | 11849 ft | 354 kts | 165° |
| 2026-05-04 21:36 | 41.25281 | 28.98172 | 12665 ft | 356 kts | 165° |
| 2026-05-04 21:37 | 41.22843 | 28.98865 | 13421 ft | 362 kts | 164° |
| 2026-05-04 21:37 | 41.20363 | 28.99585 | 14124 ft | 368 kts | 164° |
| 2026-05-04 21:37 | 41.17843 | 29.00328 | 14851 ft | 374 kts | 164° |
| 2026-05-04 21:37 | 41.15315 | 29.01078 | 15586 ft | 379 kts | 163° |
| 2026-05-04 21:38 | 41.12722 | 29.01851 | 16329 ft | 384 kts | 163° |
| 2026-05-04 21:38 | 41.10064 | 29.02646 | 17022 ft | 390 kts | 163° |
| 2026-05-04 21:38 | 41.07391 | 29.03447 | 17670 ft | 397 kts | 163° |
| 2026-05-04 21:38 | 41.04721 | 29.04247 | 18341 ft | 401 kts | 163° |
| 2026-05-04 21:39 | 41.01984 | 29.05066 | 19017 ft | 405 kts | 163° |
| 2026-05-04 21:39 | 40.99213 | 29.05894 | 19641 ft | 411 kts | 163° |
| 2026-05-04 21:39 | 40.96407 | 29.06733 | 20252 ft | 416 kts | 163° |
| 2026-05-04 21:39 | 40.93566 | 29.07581 | 20868 ft | 420 kts | 163° |
| 2026-05-04 21:40 | 40.90703 | 29.08434 | 21431 ft | 425 kts | 163° |
| 2026-05-04 21:40 | 40.87803 | 29.09299 | 22017 ft | 429 kts | 163° |
| 2026-05-04 21:40 | 40.84872 | 29.10172 | 22578 ft | 433 kts | 163° |
| 2026-05-04 21:40 | 40.81926 | 29.11048 | 23115 ft | 438 kts | 163° |
| 2026-05-04 21:41 | 40.78932 | 29.11939 | 23598 ft | 443 kts | 163° |
| 2026-05-04 21:41 | 40.75902 | 29.12839 | 24102 ft | 448 kts | 163° |
| 2026-05-04 21:41 | 40.72846 | 29.13745 | 24624 ft | 451 kts | 163° |
| 2026-05-04 21:41 | 40.69769 | 29.14656 | 25155 ft | 453 kts | 163° |
| 2026-05-04 21:42 | 40.66682 | 29.15570 | 25647 ft | 456 kts | 163° |
| 2026-05-04 21:42 | 40.63579 | 29.16487 | 26142 ft | 459 kts | 163° |
| 2026-05-04 21:42 | 40.60489 | 29.17401 | 26597 ft | 462 kts | 163° |
| 2026-05-04 21:42 | 40.57340 | 29.18331 | 27066 ft | 465 kts | 163° |
| 2026-05-04 21:43 | 40.54169 | 29.19266 | 27512 ft | 468 kts | 163° |
| 2026-05-04 21:43 | 40.50977 | 29.20206 | 27937 ft | 472 kts | 163° |
| 2026-05-04 21:43 | 40.47760 | 29.21154 | 28355 ft | 474 kts | 163° |
| 2026-05-04 21:43 | 40.44535 | 29.22102 | 28794 ft | 475 kts | 163° |
| 2026-05-04 21:44 | 40.41292 | 29.23054 | 29171 ft | 478 kts | 163° |
| 2026-05-04 21:44 | 40.38032 | 29.24010 | 29600 ft | 480 kts | 163° |
| 2026-05-04 21:44 | 40.34779 | 29.24962 | 30156 ft | 477 kts | 163° |
| 2026-05-04 21:44 | 40.31549 | 29.25906 | 30708 ft | 474 kts | 163° |
| 2026-05-04 21:45 | 40.28334 | 29.26847 | 31200 ft | 472 kts | 163° |
| 2026-05-04 21:45 | 40.25130 | 29.27784 | 31598 ft | 473 kts | 164° |
| 2026-05-04 21:45 | 40.21952 | 29.28713 | 31951 ft | 473 kts | 164° |
| 2026-05-04 21:45 | 40.18730 | 29.29655 | 32261 ft | 475 kts | 164° |
| 2026-05-04 21:46 | 40.15510 | 29.30595 | 32501 ft | 475 kts | 164° |
| 2026-05-04 21:46 | 40.12292 | 29.31532 | 32745 ft | 473 kts | 165° |
| 2026-05-04 21:46 | 40.09086 | 29.32464 | 32997 ft | 469 kts | 164° |
| 2026-05-04 21:47 | 40.02697 | 29.34322 | 33057 ft | 470 kts | 165° |
| 2026-05-04 21:47 | 39.96320 | 29.36172 | 33051 ft | 468 kts | 165° |
| 2026-05-04 21:48 | 39.89990 | 29.38137 | 33036 ft | 465 kts | 158° |
| 2026-05-04 21:48 | 39.84045 | 29.41334 | 33048 ft | 462 kts | 153° |
| 2026-05-04 21:49 | 39.78149 | 29.44691 | 33053 ft | 463 kts | 153° |
| 2026-05-04 21:49 | 39.72242 | 29.47953 | 33048 ft | 465 kts | 154° |
| 2026-05-04 21:50 | 39.66074 | 29.50513 | 33050 ft | 472 kts | 176° |
| 2026-05-04 21:50 | 39.62801 | 29.50209 | 33056 ft | 473 kts | 194° |
| 2026-05-04 21:50 | 39.59706 | 29.48779 | 33220 ft | 472 kts | 211° |
| 2026-05-04 21:50 | 39.56918 | 29.46556 | 33515 ft | 471 kts | 216° |
| 2026-05-04 21:51 | 39.54190 | 29.44196 | 33761 ft | 472 kts | 217° |
| 2026-05-04 21:51 | 39.51479 | 29.41800 | 33999 ft | 470 kts | 218° |
| 2026-05-04 21:51 | 39.48776 | 29.39412 | 34028 ft | 471 kts | 217° |
| 2026-05-04 21:52 | 39.43368 | 29.34715 | 34025 ft | 463 kts | 217° |
| 2026-05-04 21:52 | 39.38036 | 29.30165 | 34050 ft | 463 kts | 217° |
| 2026-05-04 21:53 | 39.32643 | 29.25594 | 34044 ft | 463 kts | 217° |
| 2026-05-04 21:53 | 39.27258 | 29.21036 | 34031 ft | 463 kts | 217° |
| 2026-05-04 21:54 | 39.21858 | 29.16474 | 34034 ft | 463 kts | 217° |
| 2026-05-04 21:54 | 39.16471 | 29.11930 | 34036 ft | 462 kts | 217° |
| 2026-05-04 21:55 | 39.11120 | 29.07425 | 34031 ft | 462 kts | 217° |
| 2026-05-04 21:55 | 39.05734 | 29.02898 | 34047 ft | 461 kts | 217° |
| 2026-05-04 21:56 | 39.00359 | 28.98388 | 34026 ft | 461 kts | 216° |
| 2026-05-04 21:56 | 38.94991 | 28.93893 | 34031 ft | 460 kts | 217° |
| 2026-05-04 21:57 | 38.89625 | 28.89408 | 34032 ft | 459 kts | 216° |
| 2026-05-04 21:57 | 38.84272 | 28.84943 | 34021 ft | 458 kts | 216° |
| 2026-05-04 21:58 | 38.78971 | 28.80528 | 34032 ft | 457 kts | 216° |
| 2026-05-04 21:58 | 38.73663 | 28.76115 | 33917 ft | 449 kts | 217° |
| 2026-05-04 21:58 | 38.71046 | 28.73944 | 33441 ft | 446 kts | 216° |
| 2026-05-04 21:59 | 38.68435 | 28.71776 | 32759 ft | 450 kts | 217° |
| 2026-05-04 21:59 | 38.65786 | 28.69576 | 31959 ft | 457 kts | 216° |
| 2026-05-04 21:59 | 38.63103 | 28.67353 | 31186 ft | 462 kts | 216° |
| 2026-05-04 21:59 | 38.60283 | 28.65329 | 30399 ft | 470 kts | 206° |
| 2026-05-04 22:00 | 38.57152 | 28.64035 | 29644 ft | 476 kts | 193° |
| 2026-05-04 22:00 | 38.53856 | 28.63514 | 28998 ft | 477 kts | 181° |
| 2026-05-04 22:00 | 38.50549 | 28.63700 | 28477 ft | 474 kts | 176° |
| 2026-05-04 22:00 | 38.47272 | 28.64014 | 27958 ft | 470 kts | 175° |
| 2026-05-04 22:01 | 38.44026 | 28.64350 | 27443 ft | 467 kts | 175° |
| 2026-05-04 22:01 | 38.40839 | 28.64670 | 27101 ft | 461 kts | 175° |
| 2026-05-04 22:01 | 38.37675 | 28.64968 | 26837 ft | 452 kts | 175° |
| 2026-05-04 22:01 | 38.34529 | 28.65245 | 26593 ft | 454 kts | 175° |
| 2026-05-04 22:02 | 38.31345 | 28.65513 | 26356 ft | 462 kts | 175° |
| 2026-05-04 22:02 | 38.28123 | 28.65778 | 26112 ft | 465 kts | 175° |
| 2026-05-04 22:02 | 38.24904 | 28.66039 | 25856 ft | 461 kts | 175° |
| 2026-05-04 22:02 | 38.21713 | 28.66297 | 25604 ft | 458 kts | 175° |
| 2026-05-04 22:03 | 38.18530 | 28.66555 | 25340 ft | 456 kts | 175° |
| 2026-05-04 22:03 | 38.15363 | 28.66811 | 25095 ft | 455 kts | 175° |
| 2026-05-04 22:03 | 38.12208 | 28.67066 | 24843 ft | 454 kts | 175° |
| 2026-05-04 22:03 | 38.09059 | 28.67322 | 24605 ft | 453 kts | 175° |
| 2026-05-04 22:04 | 38.05915 | 28.67577 | 24353 ft | 452 kts | 175° |
| 2026-05-04 22:04 | 38.02778 | 28.67831 | 24104 ft | 452 kts | 175° |
| 2026-05-04 22:04 | 37.99684 | 28.68082 | 23844 ft | 451 kts | 175° |
| 2026-05-04 22:04 | 37.96538 | 28.68337 | 23593 ft | 451 kts | 176° |
| 2026-05-04 22:05 | 37.93411 | 28.68590 | 23352 ft | 449 kts | 176° |
| 2026-05-04 22:05 | 37.90293 | 28.68842 | 23105 ft | 447 kts | 176° |
| 2026-05-04 22:05 | 37.87200 | 28.69092 | 22857 ft | 445 kts | 176° |
| 2026-05-04 22:05 | 37.84115 | 28.69340 | 22606 ft | 442 kts | 176° |
| 2026-05-04 22:06 | 37.81049 | 28.69587 | 22358 ft | 440 kts | 176° |
| 2026-05-04 22:06 | 37.78003 | 28.69833 | 22107 ft | 437 kts | 176° |
| 2026-05-04 22:06 | 37.74983 | 28.70076 | 21842 ft | 434 kts | 176° |
| 2026-05-04 22:06 | 37.71973 | 28.70318 | 21603 ft | 431 kts | 176° |
| 2026-05-04 22:07 | 37.68991 | 28.70544 | 21348 ft | 428 kts | 177° |
| 2026-05-04 22:07 | 37.66030 | 28.70756 | 21105 ft | 425 kts | 177° |
| 2026-05-04 22:07 | 37.63080 | 28.70964 | 20856 ft | 423 kts | 177° |
| 2026-05-04 22:07 | 37.60184 | 28.71169 | 20441 ft | 421 kts | 178° |
| 2026-05-04 22:08 | 37.57259 | 28.71378 | 19982 ft | 419 kts | 178° |
| 2026-05-04 22:08 | 37.54356 | 28.71586 | 19513 ft | 418 kts | 178° |
| 2026-05-04 22:08 | 37.51455 | 28.71795 | 19032 ft | 415 kts | 178° |
| 2026-05-04 22:08 | 37.48579 | 28.71986 | 18548 ft | 412 kts | 179° |
| 2026-05-04 22:09 | 37.45730 | 28.72101 | 18108 ft | 407 kts | 180° |
| 2026-05-04 22:09 | 37.42907 | 28.72181 | 17635 ft | 404 kts | 180° |
| 2026-05-04 22:09 | 37.40108 | 28.72253 | 17167 ft | 401 kts | 180° |
| 2026-05-04 22:09 | 37.37329 | 28.72327 | 16691 ft | 397 kts | 180° |
| 2026-05-04 22:10 | 37.34578 | 28.72406 | 16227 ft | 394 kts | 180° |
| 2026-05-04 22:10 | 37.31845 | 28.72489 | 15760 ft | 391 kts | 180° |
| 2026-05-04 22:10 | 37.29167 | 28.72574 | 15289 ft | 388 kts | 180° |
| 2026-05-04 22:10 | 37.26478 | 28.72660 | 14824 ft | 384 kts | 180° |
| 2026-05-04 22:11 | 37.23820 | 28.72746 | 14378 ft | 381 kts | 180° |
| 2026-05-04 22:11 | 37.21167 | 28.72832 | 13898 ft | 378 kts | 180° |
| 2026-05-04 22:11 | 37.18543 | 28.72916 | 13431 ft | 372 kts | 180° |
| 2026-05-04 22:11 | 37.15993 | 28.72998 | 12984 ft | 361 kts | 180° |
| 2026-05-04 22:12 | 37.13509 | 28.73080 | 12676 ft | 353 kts | 180° |
| 2026-05-04 22:12 | 37.11085 | 28.73158 | 12562 ft | 345 kts | 181° |
| 2026-05-04 22:12 | 37.08751 | 28.73233 | 12444 ft | 333 kts | 181° |
| 2026-05-04 22:12 | 37.06462 | 28.73301 | 12273 ft | 326 kts | 182° |
| 2026-05-04 22:13 | 37.04198 | 28.73219 | 11907 ft | 322 kts | 186° |
| 2026-05-04 22:13 | 37.01998 | 28.73038 | 11575 ft | 314 kts | 187° |
| 2026-05-04 22:13 | 36.99816 | 28.72844 | 11256 ft | 313 kts | 187° |
| 2026-05-04 22:13 | 36.97795 | 28.72673 | 10933 ft | 312 kts | 186° |
| 2026-05-04 22:14 | 36.95625 | 28.72503 | 10614 ft | 311 kts | 186° |
| 2026-05-04 22:14 | 36.93468 | 28.72343 | 10285 ft | 309 kts | 186° |
| 2026-05-04 22:14 | 36.91324 | 28.72184 | 9957 ft | 308 kts | 186° |
| 2026-05-04 22:14 | 36.89186 | 28.71961 | 9611 ft | 306 kts | 192° |
| 2026-05-04 22:15 | 36.87144 | 28.71382 | 9327 ft | 304 kts | 198° |
| 2026-05-04 22:15 | 36.85108 | 28.70694 | 8995 ft | 303 kts | 198° |
| 2026-05-04 22:15 | 36.83081 | 28.70001 | 8717 ft | 300 kts | 198° |
| 2026-05-04 22:15 | 36.81060 | 28.69341 | 8434 ft | 300 kts | 197° |
| 2026-05-04 22:16 | 36.79042 | 28.68697 | 8146 ft | 298 kts | 197° |
| 2026-05-04 22:16 | 36.77031 | 28.68067 | 7864 ft | 297 kts | 197° |
| 2026-05-04 22:16 | 36.75027 | 28.67441 | 7574 ft | 296 kts | 197° |
| 2026-05-04 22:16 | 36.73034 | 28.66819 | 7311 ft | 294 kts | 197° |
| 2026-05-04 22:17 | 36.71049 | 28.66203 | 7032 ft | 294 kts | 197° |
| 2026-05-04 22:17 | 36.69097 | 28.65597 | 6760 ft | 293 kts | 197° |
| 2026-05-04 22:17 | 36.67125 | 28.64951 | 6487 ft | 292 kts | 198° |
| 2026-05-04 22:17 | 36.65170 | 28.64281 | 6215 ft | 291 kts | 198° |
| 2026-05-04 22:18 | 36.63230 | 28.63618 | 5935 ft | 288 kts | 198° |
| 2026-05-04 22:18 | 36.61305 | 28.62966 | 5674 ft | 285 kts | 198° |
| 2026-05-04 22:18 | 36.59406 | 28.62324 | 5441 ft | 277 kts | 198° |
| 2026-05-04 22:18 | 36.57573 | 28.61708 | 5137 ft | 269 kts | 198° |
| 2026-05-04 22:19 | 36.55757 | 28.61339 | 4867 ft | 264 kts | 178° |
| 2026-05-04 22:19 | 36.54053 | 28.62006 | 4599 ft | 253 kts | 146° |
| 2026-05-04 22:19 | 36.52839 | 28.63501 | 4347 ft | 240 kts | 120° |
| 2026-05-04 22:19 | 36.52182 | 28.65304 | 4133 ft | 226 kts | 102° |
| 2026-05-04 22:20 | 36.51763 | 28.67137 | 3925 ft | 217 kts | 99° |
| 2026-05-04 22:20 | 36.51381 | 28.68923 | 3728 ft | 210 kts | 99° |
| 2026-05-04 22:20 | 36.51260 | 28.70648 | 3527 ft | 191 kts | 69° |
| 2026-05-04 22:20 | 36.51841 | 28.72056 | 3405 ft | 181 kts | 40° |
| 2026-05-04 22:21 | 36.52860 | 28.72841 | 3242 ft | 169 kts | 12° |
| 2026-05-04 22:21 | 36.53597 | 28.73118 | 3187 ft | 162 kts | 12° |
| 2026-05-04 22:21 | 36.54636 | 28.73515 | 3086 ft | 154 kts | 11° |
| 2026-05-04 22:21 | 36.55653 | 28.73879 | 2901 ft | 151 kts | 10° |
| 2026-05-04 22:22 | 36.56667 | 28.74230 | 2708 ft | 151 kts | 11° |
| 2026-05-04 22:22 | 36.57691 | 28.74582 | 2512 ft | 154 kts | 11° |
| 2026-05-04 22:22 | 36.58738 | 28.74940 | 2301 ft | 157 kts | 12° |
| 2026-05-04 22:22 | 36.59793 | 28.75302 | 2091 ft | 158 kts | 12° |
| 2026-05-04 22:23 | 36.60849 | 28.75664 | 1876 ft | 155 kts | 13° |
| 2026-05-04 22:23 | 36.61855 | 28.76009 | 1683 ft | 146 kts | 13° |
| 2026-05-04 22:23 | 36.62839 | 28.76346 | 1501 ft | 146 kts | 13° |
| 2026-05-04 22:23 | 36.63807 | 28.76677 | 1293 ft | 144 kts | 14° |
| 2026-05-04 22:24 | 36.64759 | 28.77000 | 1109 ft | 143 kts | 13° |
| 2026-05-04 22:24 | 36.65718 | 28.77327 | 909 ft | 142 kts | 11° |
| 2026-05-04 22:24 | 36.66677 | 28.77657 | 730 ft | 144 kts | 15° |
| 2026-05-04 22:24 | 36.67647 | 28.78001 | 535 ft | 146 kts | 14° |
| 2026-05-04 22:25 | 36.68620 | 28.78326 | 334 ft | 144 kts | 14° |
| 2026-05-04 22:25 | 36.69588 | 28.78657 | 148 ft | 144 kts | 14° |
| 2026-05-04 22:25 | 36.70541 | 28.78977 | 31 ft | 130 kts | 14° |
| 2026-05-04 22:25 | 36.71269 | 28.79231 | 28 ft | 87 kts | 15° |
| 2026-05-04 22:26 | 36.71706 | 28.79379 | 27 ft | 43 kts | 15° |
| 2026-05-04 22:26 | 36.71905 | 28.79446 | 27 ft | 21 kts | 10° |
| 2026-05-04 22:26 | 36.72023 | 28.79427 | 27 ft | 13 kts | 339° |
| 2026-05-04 22:26 | 36.72096 | 28.79401 | 27 ft | 9 kts | 344° |
| 2026-05-04 22:27 | 36.72153 | 28.79379 | 27 ft | 8 kts | 335° |
| 2026-05-04 22:27 | 36.72147 | 28.79325 | 28 ft | 8 kts | 207° |
| 2026-05-04 22:27 | 36.72092 | 28.79302 | 28 ft | 8 kts | 197° |
| 2026-05-04 22:27 | 36.72038 | 28.79282 | 28 ft | 8 kts | 194° |
| 2026-05-04 22:28 | 36.71986 | 28.79266 | 28 ft | 8 kts | 193° |
| 2026-05-04 22:28 | 36.71935 | 28.79250 | 28 ft | 7 kts | 194° |
| 2026-05-04 22:28 | 36.71888 | 28.79225 | 28 ft | 7 kts | 216° |
| 2026-05-04 22:28 | 36.71874 | 28.79169 | 28 ft | 7 kts | 281° |
| 2026-05-04 22:29 | 36.71887 | 28.79110 | 28 ft | 8 kts | 285° |
| 2026-05-04 22:29 | 36.71887 | 28.79040 | 28 ft | 8 kts | 246° |
| 2026-05-04 22:29 | 36.71838 | 28.79005 | 28 ft | 8 kts | 196° |
| 2026-05-04 22:29 | 36.71785 | 28.78985 | 28 ft | 8 kts | 196° |
| 2026-05-04 22:30 | 36.71732 | 28.78966 | 28 ft | 8 kts | 195° |
| 2026-05-04 22:30 | 36.71681 | 28.78949 | 28 ft | 7 kts | 194° |
| 2026-05-04 22:30 | 36.71658 | 28.78899 | 28 ft | 7 kts | 279° |
| 2026-05-04 22:30 | 36.71668 | 28.78854 | 28 ft | 3 kts | 285° |
| 2026-05-04 22:31 | 36.71670 | 28.78845 | 28 ft | 0 kts | 285° |